Time;durP1;ratioP1;P1;durP2;ratioP2;P2;SDS_P1;SDS_P2;PMS_P1;PMS_P2;Temp;Humidity;BMP_temperature;BMP_pressure;BME280_temperature;BME280_humidity;BME280_pressure;Samples;Min_cycle;Max_cycle;Signal;HPM_P1;HPM_P2
2021/10/11 00:07:01;;;;;;;4.28;3.30;;;;;;;;;;21256409;27;20051;-63
2021/10/11 00:17:03;;;;;;;5.32;3.17;;;;;;;;;;21253575;27;20096;-75
2021/10/11 00:27:04;;;;;;;4.43;2.72;;;;;;;;;;21252951;27;20051;-66
2021/10/11 00:37:06;;;;;;;4.60;2.92;;;;;;;;;;21251622;27;20046;-68
2021/10/11 00:47:08;;;;;;;4.18;3.03;;;;;;;;;;21253470;27;20051;-73
2021/10/11 00:57:10;;;;;;;5.30;3.17;;;;;;;;;;21249160;27;20066;-74
2021/10/11 01:07:11;;;;;;;4.90;3.15;;;;;;;;;;21248861;27;20047;-64
2021/10/11 01:17:15;;;;;;;7.03;3.00;;;;;;;;;;21248332;28;20049;-74
2021/10/11 01:27:17;;;;;;;4.93;2.90;;;;;;;;;;21255586;27;20496;-74
2021/10/11 01:37:19;;;;;;;4.10;3.28;;;;;;;;;;21264767;27;20070;-74
2021/10/11 01:47:22;;;;;;;6.18;3.13;;;;;;;;;;21264071;27;20047;-67
2021/10/11 01:57:26;;;;;;;4.80;3.22;;;;;;;;;;21262876;27;20054;-75
2021/10/11 02:07:29;;;;;;;4.32;3.03;;;;;;;;;;21262165;27;20051;-73
2021/10/11 02:17:33;;;;;;;5.05;3.65;;;;;;;;;;21295786;27;20043;-64
2021/10/11 02:27:36;;;;;;;6.90;3.35;;;;;;;;;;21282237;27;20051;-71
2021/10/11 02:37:42;;;;;;;6.80;3.58;;;;;;;;;;21259220;27;20135;-71
2021/10/11 02:47:46;;;;;;;5.70;3.13;;;;;;;;;;21260243;27;20039;-75
2021/10/11 02:57:49;;;;;;;4.35;3.15;;;;;;;;;;21259503;27;20047;-73
2021/10/11 03:07:56;;;;;;;7.43;3.67;;;;;;;;;;21258795;27;20051;-71
2021/10/11 03:18:17;;;;;;;4.57;3.20;;;;;;;;;;21258664;27;20043;-70
2021/10/11 03:28:29;;;;;;;5.32;3.05;;;;;;;;;;21256606;27;20103;-69
2021/10/11 03:38:44;;;;;;;5.85;3.65;;;;;;;;;;21254954;27;20049;-73
2021/10/11 03:48:54;;;;;;;5.15;4.10;;;;;;;;;;21254389;27;20054;-73
2021/10/11 03:58:59;;;;;;;5.95;3.38;;;;;;;;;;21253709;27;20046;-73
2021/10/11 04:09:06;;;;;;;5.90;3.80;;;;;;;;;;21251980;27;20553;-72
2021/10/11 04:19:12;;;;;;;4.82;3.63;;;;;;;;;;21251216;27;20043;-74
2021/10/11 04:29:17;;;;;;;4.55;3.53;;;;;;;;;;21250771;27;20087;-72
2021/10/11 04:39:25;;;;;;;5.70;4.00;;;;;;;;;;21251534;27;20537;-74
2021/10/11 04:49:37;;;;;;;4.47;3.50;;;;;;;;;;21249615;27;20058;-72
2021/10/11 04:59:40;;;;;;;3.42;3.13;;;;;;;;;;21248233;27;20062;-66
2021/10/11 05:09:43;;;;;;;6.57;3.85;;;;;;;;;;21249761;27;20405;-74
2021/10/11 05:19:46;;;;;;;6.70;3.70;;;;;;;;;;21250115;28;20047;-72
2021/10/11 05:29:49;;;;;;;5.97;3.70;;;;;;;;;;21250224;28;20058;-63
2021/10/11 05:39:53;;;;;;;;;;;;;;;;;;21248272;28;20050;-72
2021/10/11 05:49:57;;;;;;;6.57;3.28;;;;;;;;;;21248580;28;19920;-72
2021/10/11 06:00:02;;;;;;;5.70;3.80;;;;;;;;;;21287262;28;20077;-72
2021/10/11 06:10:05;;;;;;;6.53;3.80;;;;;;;;;;21250098;27;20062;-73
2021/10/11 06:20:10;;;;;;;9.57;4.63;;;;;;;;;;21261758;27;20100;-75
2021/10/11 06:30:14;;;;;;;5.72;4.30;;;;;;;;;;21260847;27;20062;-71
2021/10/11 06:40:17;;;;;;;7.57;4.75;;;;;;;;;;21259362;27;20069;-72
2021/10/11 06:50:21;;;;;;;6.13;4.53;;;;;;;;;;21260034;27;20100;-71
2021/10/11 07:00:23;;;;;;;6.95;4.88;;;;;;;;;;21258208;27;20043;-73
2021/10/11 07:10:26;;;;;;;7.40;5.40;;;;;;;;;;21259258;27;20082;-72
2021/10/11 07:20:30;;;;;;;8.67;5.20;;;;;;;;;;21256502;27;20047;-73
2021/10/11 07:30:33;;;;;;;14.25;5.85;;;;;;;;;;21255420;27;20050;-72
2021/10/11 07:40:36;;;;;;;9.45;5.82;;;;;;;;;;21255730;27;20172;-73
2021/10/11 07:50:38;;;;;;;9.27;5.53;;;;;;;;;;21254158;27;20051;-72
2021/10/11 08:00:40;;;;;;;11.93;6.80;;;;;;;;;;21254408;27;20103;-72
2021/10/11 08:10:44;;;;;;;9.50;6.47;;;;;;;;;;21255379;27;20050;-72
2021/10/11 08:20:47;;;;;;;9.80;6.00;;;;;;;;;;21254462;27;20100;-73
2021/10/11 08:30:53;;;;;;;7.13;4.37;;;;;;;;;;21251665;27;20387;-73
2021/10/11 08:40:56;;;;;;;11.70;4.57;;;;;;;;;;21252347;27;20050;-72
2021/10/11 08:50:59;;;;;;;9.77;4.88;;;;;;;;;;21253548;27;20054;-67
2021/10/11 09:01:07;;;;;;;6.88;3.85;;;;;;;;;;21254480;27;20048;-70
2021/10/11 09:11:10;;;;;;;9.30;3.72;;;;;;;;;;21252438;27;20107;-72
2021/10/11 09:21:13;;;;;;;;;;;;;;;;;;21250968;28;20497;-68
2021/10/11 09:31:16;;;;;;;15.25;10.35;;;;;;;;;;21246543;28;19919;-62
2021/10/11 09:41:21;;;;;;;5.35;2.70;;;;;;;;;;21255987;27;20047;-64
2021/10/11 09:51:24;;;;;;;3.65;2.58;;;;;;;;;;21260356;27;20043;-60
2021/10/11 10:01:28;;;;;;;18.60;3.87;;;;;;;;;;21274883;27;20409;-58
2021/10/11 10:11:33;;;;;;;7.90;2.78;;;;;;;;;;21348259;27;20301;-65
2021/10/11 10:21:39;;;;;;;4.35;2.58;;;;;;;;;;21329184;27;20050;-64
2021/10/11 10:31:43;;;;;;;6.60;2.70;;;;;;;;;;21346661;27;20067;-65
2021/10/11 10:41:56;;;;;;;4.00;2.65;;;;;;;;;;21344460;27;20141;-58
2021/10/11 10:51:59;;;;;;;4.47;2.58;;;;;;;;;;21344000;27;20050;-66
2021/10/11 11:02:05;;;;;;;4.20;2.40;;;;;;;;;;21341785;27;20098;-58
2021/10/11 11:12:09;;;;;;;4.63;3.00;;;;;;;;;;21342256;27;20043;-62
2021/10/11 11:22:20;;;;;;;5.15;2.40;;;;;;;;;;21341373;27;20055;-59
2021/10/11 11:32:21;;;;;;;8.57;2.58;;;;;;;;;;21340102;27;20136;-60
2021/10/11 11:42:29;;;;;;;3.50;2.40;;;;;;;;;;21339621;27;20054;-58
2021/10/11 11:52:33;;;;;;;3.38;2.63;;;;;;;;;;21320508;27;20051;-57
2021/10/11 12:02:37;;;;;;;5.72;2.92;;;;;;;;;;21338626;27;20141;-60
2021/10/11 12:12:40;;;;;;;4.60;2.28;;;;;;;;;;21336573;27;20046;-60
2021/10/11 12:22:44;;;;;;;4.40;2.50;;;;;;;;;;21336656;27;20130;-60
2021/10/11 12:32:46;;;;;;;4.97;2.43;;;;;;;;;;21335534;27;20057;-59
2021/10/11 12:42:50;;;;;;;4.10;2.33;;;;;;;;;;21335318;27;20107;-60
2021/10/11 12:52:53;;;;;;;5.63;2.47;;;;;;;;;;21335108;27;20475;-62
2021/10/11 13:02:56;;;;;;;4.10;2.20;;;;;;;;;;21333813;27;20406;-61
2021/10/11 13:12:58;;;;;;;4.93;2.15;;;;;;;;;;21333459;27;20047;-60
2021/10/11 13:23:00;;;;;;;7.50;2.03;;;;;;;;;;21341326;27;20103;-62
2021/10/11 15:51:46;;;;;;;4.27;2.30;;;;;;;;;;21344418;27;20518;-61
2021/10/11 16:07:45;;;;;;;4.75;2.67;;;;;;;;;;21338883;27;20043;-61
2021/10/11 16:17:47;;;;;;;3.80;2.30;;;;;;;;;;21336207;27;20043;-61
2021/10/11 16:27:49;;;;;;;4.65;2.55;;;;;;;;;;21335555;27;20051;-61
2021/10/11 16:37:51;;;;;;;4.32;2.35;;;;;;;;;;21335448;27;20114;-62
2021/10/11 16:47:52;;;;;;;4.07;2.47;;;;;;;;;;21334837;27;20452;-61
2021/10/11 16:57:54;;;;;;;3.45;2.55;;;;;;;;;;21333202;27;20082;-60
2021/10/11 17:07:58;;;;;;;4.68;2.85;;;;;;;;;;21333436;27;20051;-60
2021/10/11 17:18:01;;;;;;;6.28;2.92;;;;;;;;;;21332641;27;20082;-60
2021/10/11 17:28:03;;;;;;;3.30;2.30;;;;;;;;;;21332638;27;20431;-61
2021/10/11 17:38:05;;;;;;;14.23;3.80;;;;;;;;;;21333266;27;20121;-61
2021/10/11 17:48:07;;;;;;;4.72;2.95;;;;;;;;;;21331317;27;20058;-61
2021/10/11 17:58:11;;;;;;;4.88;3.28;;;;;;;;;;21330393;27;20062;-62
2021/10/11 18:08:12;;;;;;;;;;;;;;;;;;21334306;27;20086;-60
2021/10/11 18:18:16;;;;;;;6.15;3.60;;;;;;;;;;21345904;27;19919;-61
2021/10/11 18:28:18;;;;;;;7.00;5.03;;;;;;;;;;21344690;27;20072;-60
2021/10/11 18:38:20;;;;;;;10.95;4.97;;;;;;;;;;21344217;27;20043;-60
2021/10/11 18:48:23;;;;;;;10.43;5.30;;;;;;;;;;21343430;27;20490;-62
2021/10/11 18:58:25;;;;;;;11.05;5.07;;;;;;;;;;21342453;27;20138;-60
2021/10/11 19:08:27;;;;;;;8.83;5.33;;;;;;;;;;21342367;27;20058;-62
2021/10/11 19:18:29;;;;;;;9.65;4.90;;;;;;;;;;21340657;27;20231;-62
2021/10/11 19:28:31;;;;;;;10.82;5.47;;;;;;;;;;21340614;27;20046;-61
2021/10/11 19:38:33;;;;;;;8.23;6.28;;;;;;;;;;21340985;27;20039;-62
2021/10/11 19:48:35;;;;;;;17.67;10.73;;;;;;;;;;21339680;27;20051;-60
2021/10/11 19:58:37;;;;;;;12.90;7.32;;;;;;;;;;21338454;27;20046;-61
2021/10/11 20:08:39;;;;;;;14.02;7.35;;;;;;;;;;21337697;27;20050;-62
2021/10/11 20:18:41;;;;;;;10.77;7.07;;;;;;;;;;21338033;27;20062;-61
2021/10/11 20:28:44;;;;;;;14.63;8.05;;;;;;;;;;21336106;27;20046;-60
2021/10/11 20:38:46;;;;;;;10.02;5.82;;;;;;;;;;21335395;27;20047;-63
2021/10/11 20:48:48;;;;;;;11.15;5.78;;;;;;;;;;21334224;27;20493;-60
2021/10/11 20:58:51;;;;;;;10.20;5.80;;;;;;;;;;21333602;27;20059;-60
2021/10/11 21:08:53;;;;;;;10.40;5.30;;;;;;;;;;21333642;27;20054;-60
2021/10/11 21:18:56;;;;;;;11.35;5.03;;;;;;;;;;21332584;27;20049;-60
2021/10/11 21:28:59;;;;;;;11.30;5.90;;;;;;;;;;21332813;27;20483;-60
2021/10/11 21:39:01;;;;;;;10.43;5.50;;;;;;;;;;21332170;27;20146;-62
2021/10/11 21:49:04;;;;;;;7.22;5.07;;;;;;;;;;21347558;27;20119;-61
2021/10/11 21:59:07;;;;;;;8.32;4.15;;;;;;;;;;21347643;27;20050;-60
2021/10/11 22:09:09;;;;;;;8.73;5.00;;;;;;;;;;21347538;27;20062;-61
2021/10/11 22:19:11;;;;;;;7.32;4.50;;;;;;;;;;21347583;27;20287;-59
2021/10/11 22:29:13;;;;;;;7.75;5.25;;;;;;;;;;21346006;27;20078;-60
2021/10/11 22:39:15;;;;;;;6.68;3.88;;;;;;;;;;21345051;27;20078;-59
2021/10/11 22:49:17;;;;;;;8.82;4.03;;;;;;;;;;21344806;27;20466;-61
2021/10/11 22:59:19;;;;;;;7.13;3.95;;;;;;;;;;21342850;27;20054;-60
2021/10/11 23:09:21;;;;;;;7.25;3.55;;;;;;;;;;21343092;27;20478;-60
2021/10/11 23:19:24;;;;;;;6.82;3.75;;;;;;;;;;21343048;27;20498;-59
2021/10/11 23:29:26;;;;;;;6.40;4.22;;;;;;;;;;21341749;27;20047;-59
2021/10/11 23:39:27;;;;;;;10.73;4.50;;;;;;;;;;21340778;27;20494;-60
2021/10/11 23:49:30;;;;;;;6.47;3.97;;;;;;;;;;21340175;27;20474;-60
2021/10/11 23:59:32;;;;;;;8.10;4.75;;;;;;;;;;21339395;27;20079;-61
